createdAt,value
2018-03-31T00:00:27.135Z,0
2018-03-31T00:01:27.390Z,0
2018-03-31T00:02:27.375Z,0
2018-03-31T00:03:27.337Z,0
2018-03-31T00:04:27.052Z,0
2018-03-31T00:05:27.083Z,0
2018-03-31T00:06:27.025Z,0
2018-03-31T00:07:27.067Z,0
2018-03-31T00:08:26.952Z,0
2018-03-31T00:09:27.499Z,0
2018-03-31T00:10:26.979Z,0
2018-03-31T00:11:27.473Z,0
2018-03-31T00:12:27.174Z,0
2018-03-31T00:13:27.156Z,0
2018-03-31T00:14:27.144Z,0
2018-03-31T00:15:27.144Z,0
2018-03-31T00:16:27.379Z,0
2018-03-31T00:17:26.818Z,0
2018-03-31T00:18:27.074Z,0
2018-03-31T00:19:26.521Z,0
2018-03-31T00:20:27.033Z,0
2018-03-31T00:21:27.298Z,0
2018-03-31T00:22:27.000Z,0
2018-03-31T00:23:27.245Z,0
2018-03-31T00:24:26.973Z,0
2018-03-31T00:25:26.676Z,0
2018-03-31T00:26:26.390Z,0
2018-03-31T00:27:27.178Z,0
2018-03-31T00:28:26.924Z,0
2018-03-31T00:29:26.863Z,0
2018-03-31T00:30:26.850Z,0
2018-03-31T00:31:26.832Z,0
2018-03-31T00:32:27.083Z,0
2018-03-31T00:33:26.815Z,0
2018-03-31T00:34:26.574Z,0
2018-03-31T00:35:26.488Z,0
2018-03-31T00:36:26.212Z,0
2018-03-31T00:37:26.468Z,0
2018-03-31T00:38:26.783Z,0
2018-03-31T00:39:26.687Z,0
2018-03-31T00:40:26.131Z,0
2018-03-31T00:41:26.117Z,0
2018-03-31T00:42:26.628Z,0
2018-03-31T00:43:26.609Z,0
2018-03-31T00:44:26.591Z,0
2018-03-31T00:45:26.570Z,0
2018-03-31T00:46:26.563Z,0
2018-03-31T00:47:26.806Z,0
2018-03-31T00:48:25.990Z,0
2018-03-31T00:49:26.246Z,0
2018-03-31T00:50:26.494Z,0
2018-03-31T00:51:26.194Z,0
2018-03-31T00:52:26.719Z,0
2018-03-31T00:53:26.428Z,0
2018-03-31T00:54:26.677Z,0
2018-03-31T00:55:26.127Z,0
2018-03-31T00:56:26.372Z,0
2018-03-31T00:57:26.350Z,0
2018-03-31T00:58:26.075Z,0
2018-03-31T00:59:26.585Z,0
2018-03-31T01:00:26.039Z,0
2018-03-31T01:01:26.557Z,0
2018-03-31T01:02:26.004Z,0
2018-03-31T01:03:25.980Z,0
2018-03-31T01:04:25.964Z,0
2018-03-31T01:05:26.207Z,0
2018-03-31T01:06:26.193Z,0
2018-03-31T01:07:26.459Z,0
2018-03-31T01:08:25.621Z,0
2018-03-31T01:09:26.403Z,0
2018-03-31T01:10:25.585Z,0
2018-03-31T01:11:25.832Z,0
2018-03-31T01:12:26.082Z,0
2018-03-31T01:13:25.796Z,0
2018-03-31T01:14:26.042Z,0
2018-03-31T01:15:26.035Z,0
2018-03-31T01:16:25.742Z,0
2018-03-31T01:17:25.461Z,0
2018-03-31T01:18:25.704Z,0
2018-03-31T01:19:26.228Z,0
2018-03-31T01:20:25.930Z,0
2018-03-31T01:21:26.171Z,0
2018-03-31T01:22:25.625Z,0
2018-03-31T01:23:26.185Z,0
2018-03-31T01:24:25.325Z,0
2018-03-31T01:25:25.300Z,0
2018-03-31T01:26:25.814Z,0
2018-03-31T01:27:25.531Z,0
2018-03-31T01:28:25.249Z,0
2018-03-31T01:29:25.236Z,0
2018-03-31T01:30:25.475Z,0
2018-03-31T01:31:25.722Z,0
2018-03-31T01:32:25.702Z,0
2018-03-31T01:33:25.951Z,0
2018-03-31T01:34:25.131Z,0
2018-03-31T01:35:25.651Z,0
2018-03-31T01:36:25.636Z,0
2018-03-31T01:37:25.614Z,0
2018-03-31T01:38:25.601Z,0
2018-03-31T01:39:25.569Z,0
2018-03-31T01:40:25.819Z,0
2018-03-31T01:41:25.540Z,0
2018-03-31T01:42:25.518Z,0
2018-03-31T01:43:25.766Z,0
2018-03-31T01:44:25.481Z,0
2018-03-31T01:45:25.195Z,0
2018-03-31T01:46:25.449Z,0
2018-03-31T01:47:24.897Z,0
2018-03-31T01:48:25.413Z,0
2018-03-31T01:49:25.657Z,0
2018-03-31T01:50:25.378Z,0
2018-03-31T01:51:25.347Z,0
2018-03-31T01:52:25.347Z,0
2018-03-31T01:53:24.784Z,0
2018-03-31T01:54:25.558Z,0
2018-03-31T01:55:25.283Z,0
2018-03-31T01:56:25.000Z,0
2018-03-31T01:57:25.242Z,0
2018-03-31T01:58:25.492Z,0
2018-03-31T01:59:25.498Z,0
2018-03-31T02:00:25.186Z,0
2018-03-31T02:01:25.222Z,0
2018-03-31T02:02:24.880Z,0
2018-03-31T02:03:25.126Z,0
2018-03-31T02:04:24.891Z,0
2018-03-31T02:05:25.350Z,0
2018-03-31T02:06:25.070Z,0
2018-03-31T02:07:25.062Z,0
2018-03-31T02:08:24.973Z,0
2018-03-31T02:09:25.021Z,0
2018-03-31T02:10:24.465Z,0
2018-03-31T02:11:24.972Z,0
2018-03-31T02:12:25.223Z,0
2018-03-31T02:13:24.944Z,0
2018-03-31T02:14:24.648Z,0
2018-03-31T02:15:24.640Z,0
2018-03-31T02:16:24.881Z,0
2018-03-31T02:17:24.336Z,0
2018-03-31T02:18:24.848Z,0
2018-03-31T02:19:25.098Z,0
2018-03-31T02:20:24.812Z,0
2018-03-31T02:21:24.519Z,0
2018-03-31T02:22:24.766Z,0
2018-03-31T02:23:24.754Z,0
2018-03-31T02:24:24.461Z,0
2018-03-31T02:25:24.728Z,0
2018-03-31T02:26:24.702Z,0
2018-03-31T02:27:24.407Z,0
2018-03-31T02:28:24.656Z,0
2018-03-31T02:29:24.372Z,0
2018-03-31T02:30:24.661Z,0
2018-03-31T02:31:24.873Z,0
2018-03-31T02:32:24.586Z,0
2018-03-31T02:33:24.576Z,0
2018-03-31T02:34:24.561Z,0
2018-03-31T02:35:24.527Z,0
2018-03-31T02:36:24.509Z,0
2018-03-31T02:37:24.754Z,0
2018-03-31T02:38:24.736Z,0
2018-03-31T02:39:24.193Z,0
2018-03-31T02:40:24.168Z,0
2018-03-31T02:41:24.412Z,0
2018-03-31T02:42:24.462Z,0
2018-03-31T02:43:23.842Z,0
2018-03-31T02:44:24.352Z,0
2018-03-31T02:45:24.343Z,0
2018-03-31T02:46:24.324Z,0
2018-03-31T02:47:24.561Z,0
2018-03-31T02:48:24.018Z,0
2018-03-31T02:49:23.729Z,0
2018-03-31T02:50:24.254Z,0
2018-03-31T02:51:23.686Z,0
2018-03-31T02:52:23.933Z,0
2018-03-31T02:53:24.176Z,0
2018-03-31T02:54:24.153Z,0
2018-03-31T02:55:24.406Z,0
2018-03-31T02:56:24.395Z,0
2018-03-31T02:57:24.380Z,0
2018-03-31T02:58:24.083Z,0
2018-03-31T02:59:24.081Z,0
2018-03-31T03:00:24.066Z,0
2018-03-31T03:01:24.041Z,0
2018-03-31T03:02:24.008Z,0
2018-03-31T03:03:23.728Z,0
2018-03-31T03:04:23.969Z,0
2018-03-31T03:05:23.946Z,0
2018-03-31T03:06:23.673Z,0
2018-03-31T03:07:23.912Z,0
2018-03-31T03:08:24.162Z,0
2018-03-31T03:09:24.132Z,0
2018-03-31T03:10:24.109Z,0
2018-03-31T03:11:23.561Z,0
2018-03-31T03:12:23.805Z,0
2018-03-31T03:13:23.529Z,0
2018-03-31T03:14:23.513Z,0
2018-03-31T03:15:23.480Z,0
2018-03-31T03:16:23.474Z,0
2018-03-31T03:17:23.450Z,0
2018-03-31T03:18:23.692Z,0
2018-03-31T03:19:23.404Z,0
2018-03-31T03:20:23.402Z,0
2018-03-31T03:21:23.715Z,0
2018-03-31T03:22:23.616Z,0
2018-03-31T03:23:23.597Z,0
2018-03-31T03:24:23.596Z,0
2018-03-31T03:25:23.560Z,0
2018-03-31T03:26:23.808Z,0
2018-03-31T03:27:22.989Z,0
2018-03-31T03:28:23.772Z,0
2018-03-31T03:29:22.957Z,0
2018-03-31T03:30:23.216Z,0
2018-03-31T03:31:23.191Z,0
2018-03-31T03:32:23.158Z,0
2018-03-31T03:33:23.400Z,0
2018-03-31T03:34:23.646Z,0
2018-03-31T03:35:22.831Z,0
2018-03-31T03:36:23.351Z,0
2018-03-31T03:37:23.059Z,0
2018-03-31T03:38:23.313Z,0
2018-03-31T03:39:23.021Z,0
2018-03-31T03:40:23.265Z,0
2018-03-31T03:41:22.717Z,0
2018-03-31T03:42:23.495Z,0
2018-03-31T03:43:23.205Z,0
2018-03-31T03:44:22.929Z,0
2018-03-31T03:45:22.634Z,0
2018-03-31T03:46:22.888Z,0
2018-03-31T03:47:22.878Z,0
2018-03-31T03:48:22.843Z,0
2018-03-31T03:49:22.562Z,0
2018-03-31T03:50:22.810Z,0
2018-03-31T03:51:22.521Z,0
2018-03-31T03:52:22.768Z,0
2018-03-31T03:53:22.750Z,0
2018-03-31T03:54:22.734Z,0
2018-03-31T03:55:22.970Z,0
2018-03-31T03:56:22.952Z,0
2018-03-31T03:57:22.674Z,0
2018-03-31T03:58:22.917Z,0
2018-03-31T03:59:22.679Z,0
2018-03-31T04:00:22.881Z,0
2018-03-31T04:01:22.595Z,0
2018-03-31T04:02:22.838Z,0
2018-03-31T04:03:22.819Z,0
2018-03-31T04:04:22.532Z,0
2018-03-31T04:05:22.785Z,0
2018-03-31T04:06:22.497Z,0
2018-03-31T04:07:22.739Z,0
2018-03-31T04:08:22.389Z,0
2018-03-31T04:09:22.702Z,0
2018-03-31T04:10:22.947Z,0
2018-03-31T04:11:22.930Z,0
2018-03-31T04:12:22.649Z,0
2018-03-31T04:13:22.622Z,0
2018-03-31T04:14:22.862Z,0
2018-03-31T04:15:22.593Z,0
2018-03-31T04:16:23.085Z,0
2018-03-31T04:17:22.409Z,0
2018-03-31T04:18:22.858Z,0
2018-03-31T04:19:22.827Z,0
2018-03-31T04:20:22.283Z,0
2018-03-31T04:21:22.242Z,0
2018-03-31T04:22:22.421Z,0
2018-03-31T04:23:22.444Z,0
2018-03-31T04:24:22.424Z,0
2018-03-31T04:25:22.403Z,0
2018-03-31T04:26:22.414Z,0
2018-03-31T04:27:22.379Z,0
2018-03-31T04:28:22.466Z,0
2018-03-31T04:29:22.079Z,0
2018-03-31T04:30:22.304Z,0
2018-03-31T04:31:22.269Z,0
2018-03-31T04:32:22.552Z,0
2018-03-31T04:33:22.420Z,0
2018-03-31T04:34:22.621Z,0
2018-03-31T04:35:22.367Z,0
2018-03-31T04:36:22.160Z,0
2018-03-31T04:37:21.893Z,0
2018-03-31T04:38:21.858Z,0
2018-03-31T04:39:22.110Z,0
2018-03-31T04:40:22.416Z,0
2018-03-31T04:41:22.244Z,4
2018-03-31T04:42:21.796Z,4
2018-03-31T04:43:22.199Z,0
2018-03-31T04:44:21.742Z,4
2018-03-31T04:45:21.992Z,4
2018-03-31T04:46:21.965Z,4
2018-03-31T04:47:21.949Z,8
2018-03-31T04:48:22.281Z,8
2018-03-31T04:49:21.784Z,8
2018-03-31T04:50:21.615Z,12
2018-03-31T04:51:21.606Z,12
2018-03-31T04:52:22.154Z,16
2018-03-31T04:53:22.188Z,16
2018-03-31T04:54:21.817Z,20
2018-03-31T04:55:21.893Z,24
2018-03-31T04:56:22.187Z,28
2018-03-31T04:57:21.785Z,28
2018-03-31T04:58:21.461Z,36
2018-03-31T04:59:21.793Z,44
2018-03-31T05:00:22.009Z,44
2018-03-31T05:01:21.942Z,52
2018-03-31T05:02:22.057Z,60
2018-03-31T05:03:21.368Z,68
2018-03-31T05:04:22.399Z,76
2018-03-31T05:05:21.666Z,84
2018-03-31T05:06:21.297Z,92
2018-03-31T05:07:21.276Z,100
2018-03-31T05:08:21.254Z,112
2018-03-31T05:09:21.822Z,124
2018-03-31T05:10:21.497Z,132
2018-03-31T05:11:21.503Z,144
2018-03-31T05:12:21.195Z,156
2018-03-31T05:13:21.425Z,168
2018-03-31T05:14:21.424Z,184
2018-03-31T05:15:21.384Z,200
2018-03-31T05:16:21.627Z,216
2018-03-31T05:17:21.347Z,232
2018-03-31T05:18:21.319Z,252
2018-03-31T05:19:21.313Z,272
2018-03-31T05:20:21.384Z,288
2018-03-31T05:21:21.682Z,312
2018-03-31T05:22:21.050Z,336
2018-03-31T05:23:20.962Z,356
2018-03-31T05:24:21.258Z,388
2018-03-31T05:25:21.318Z,412
2018-03-31T05:26:21.006Z,444
2018-03-31T05:27:20.874Z,472
2018-03-31T05:28:21.388Z,504
2018-03-31T05:29:20.834Z,536
2018-03-31T05:30:21.394Z,564
2018-03-31T05:31:21.186Z,600
2018-03-31T05:32:20.778Z,632
2018-03-31T05:33:21.016Z,668
2018-03-31T05:34:20.746Z,696
2018-03-31T05:35:20.724Z,728
2018-03-31T05:36:20.979Z,760
2018-03-31T05:37:20.679Z,788
2018-03-31T05:38:20.919Z,820
2018-03-31T05:39:20.638Z,856
2018-03-31T05:40:20.351Z,888
2018-03-31T05:41:20.873Z,932
2018-03-31T05:42:21.138Z,968
2018-03-31T05:43:20.831Z,1016
2018-03-31T05:44:20.789Z,1064
2018-03-31T05:45:20.247Z,1120
2018-03-31T05:46:20.481Z,1172
2018-03-31T05:47:21.068Z,1224
2018-03-31T05:48:20.981Z,1272
2018-03-31T05:49:20.770Z,1320
2018-03-31T05:50:20.972Z,1364
2018-03-31T05:51:20.673Z,1412
2018-03-31T05:52:20.908Z,1464
2018-03-31T05:53:20.081Z,1512
2018-03-31T05:54:20.401Z,1560
2018-03-31T05:55:20.370Z,1604
2018-03-31T05:56:20.542Z,1648
2018-03-31T05:57:20.290Z,1696
2018-03-31T05:58:20.242Z,1740
2018-03-31T05:59:20.234Z,1772
2018-03-31T06:00:20.467Z,1816
2018-03-31T06:01:19.914Z,1848
2018-03-31T06:02:19.897Z,1892
2018-03-31T06:03:20.433Z,1964
2018-03-31T06:04:20.135Z,2056
2018-03-31T06:05:20.626Z,2156
2018-03-31T06:06:20.089Z,2232
2018-03-31T06:07:20.595Z,2308
2018-03-31T06:08:20.702Z,2388
2018-03-31T06:09:20.565Z,2500
2018-03-31T06:10:20.638Z,2620
2018-03-31T06:11:20.508Z,2692
2018-03-31T06:12:20.232Z,2740
2018-03-31T06:13:19.961Z,2784
2018-03-31T06:14:20.484Z,2832
2018-03-31T06:15:20.400Z,2868
2018-03-31T06:16:19.972Z,2904
2018-03-31T06:17:20.528Z,2940
2018-03-31T06:18:20.009Z,2976
2018-03-31T06:19:19.814Z,3020
2018-03-31T06:20:20.073Z,3076
2018-03-31T06:21:19.767Z,3104
2018-03-31T06:22:19.948Z,3112
2018-03-31T06:23:19.751Z,3128
2018-03-31T06:24:19.850Z,3172
2018-03-31T06:25:19.894Z,3220
2018-03-31T06:26:19.680Z,3240
2018-03-31T06:27:19.500Z,3288
2018-03-31T06:28:20.312Z,3368
2018-03-31T06:29:20.225Z,3408
2018-03-31T06:30:19.604Z,3424
2018-03-31T06:31:19.926Z,3480
2018-03-31T06:32:19.563Z,3520
2018-03-31T06:33:19.805Z,3576
2018-03-31T06:34:19.524Z,3604
2018-03-31T06:35:20.052Z,3596
2018-03-31T06:36:19.214Z,3624
2018-03-31T06:37:19.774Z,3648
2018-03-31T06:38:19.544Z,3696
2018-03-31T06:39:19.744Z,3704
2018-03-31T06:40:19.262Z,3740
2018-03-31T06:41:19.245Z,3788
2018-03-31T06:42:19.499Z,3820
2018-03-31T06:43:19.934Z,3892
2018-03-31T06:44:19.601Z,3924
2018-03-31T06:45:19.400Z,3888
2018-03-31T06:46:19.290Z,3864
2018-03-31T06:47:19.281Z,3820
2018-03-31T06:48:19.516Z,3768
2018-03-31T06:49:18.975Z,3700
2018-03-31T06:50:19.312Z,3668
2018-03-31T06:51:19.566Z,3724
2018-03-31T06:52:19.749Z,3764
2018-03-31T06:53:19.431Z,3740
2018-03-31T06:54:19.442Z,3856
2018-03-31T06:55:19.470Z,4000
2018-03-31T06:56:19.170Z,4160
2018-03-31T06:57:19.134Z,4252
2018-03-31T06:58:19.402Z,4324
2018-03-31T06:59:19.042Z,4332
2018-03-31T07:00:19.574Z,4288
2018-03-31T07:01:19.556Z,4292
2018-03-31T07:02:19.286Z,4272
2018-03-31T07:03:19.263Z,4296
2018-03-31T07:04:19.221Z,4288
2018-03-31T07:05:19.243Z,4304
2018-03-31T07:06:18.647Z,4352
2018-03-31T07:07:19.202Z,4380
2018-03-31T07:08:18.931Z,4468
2018-03-31T07:09:18.913Z,4500
2018-03-31T07:10:19.445Z,4564
2018-03-31T07:11:18.893Z,4624
2018-03-31T07:12:18.815Z,4608
2018-03-31T07:13:19.056Z,4624
2018-03-31T07:14:18.500Z,4632
2018-03-31T07:15:19.076Z,4612
2018-03-31T07:16:18.791Z,4628
2018-03-31T07:17:18.982Z,4716
2018-03-31T07:18:18.975Z,4756
2018-03-31T07:19:18.694Z,4864
2018-03-31T07:20:18.742Z,4808
2018-03-31T07:21:18.696Z,4908
2018-03-31T07:22:19.304Z,4892
2018-03-31T07:23:18.875Z,4952
2018-03-31T07:24:19.227Z,5008
2018-03-31T07:25:18.868Z,5060
2018-03-31T07:26:18.876Z,5052
2018-03-31T07:27:18.306Z,5124
2018-03-31T07:28:18.846Z,5232
2018-03-31T07:29:18.544Z,5368
2018-03-31T07:30:19.021Z,5420
2018-03-31T07:31:18.806Z,5456
2018-03-31T07:32:18.901Z,5500
2018-03-31T07:33:18.431Z,5580
2018-03-31T07:34:18.972Z,5704
2018-03-31T07:35:18.402Z,5780
2018-03-31T07:36:18.370Z,5868
2018-03-31T07:37:18.676Z,5996
2018-03-31T07:38:18.824Z,6176
2018-03-31T07:39:18.582Z,6144
2018-03-31T07:40:18.842Z,6232
2018-03-31T07:41:18.967Z,6248
2018-03-31T07:42:18.913Z,6320
2018-03-31T07:43:18.453Z,6252
2018-03-31T07:44:17.963Z,6484
2018-03-31T07:45:18.875Z,6516
2018-03-31T07:46:18.551Z,6608
2018-03-31T07:47:18.587Z,6532
2018-03-31T07:48:18.713Z,6500
2018-03-31T07:49:18.709Z,6452
2018-03-31T07:50:18.214Z,6432
2018-03-31T07:51:18.672Z,6444
2018-03-31T07:52:18.101Z,6436
2018-03-31T07:53:18.608Z,6340
2018-03-31T07:54:17.796Z,6328
2018-03-31T07:55:17.778Z,6260
2018-03-31T07:56:18.034Z,6236
2018-03-31T07:57:18.522Z,6144
2018-03-31T07:58:18.272Z,6116
2018-03-31T07:59:17.981Z,6120
2018-03-31T08:00:17.694Z,6108
2018-03-31T08:01:18.468Z,6140
2018-03-31T08:02:18.262Z,6120
2018-03-31T08:03:18.175Z,6068
2018-03-31T08:04:18.177Z,6064
2018-03-31T08:05:18.146Z,6140
2018-03-31T08:06:18.140Z,6376
2018-03-31T08:07:18.115Z,6476
2018-03-31T08:08:18.108Z,6692
2018-03-31T08:09:18.284Z,6812
2018-03-31T08:10:18.082Z,6912
2018-03-31T08:11:17.778Z,7060
2018-03-31T08:12:18.029Z,7200
2018-03-31T08:13:17.741Z,7464
2018-03-31T08:14:17.727Z,7612
2018-03-31T08:15:17.712Z,7972
2018-03-31T08:16:17.959Z,8572
2018-03-31T08:17:17.681Z,14824
2018-03-31T08:18:18.186Z,23424
2018-03-31T08:19:17.667Z,24384
2018-03-31T08:20:17.895Z,22816
2018-03-31T08:21:17.894Z,21408
2018-03-31T08:22:17.878Z,24096
2018-03-31T08:23:17.853Z,25600
2018-03-31T08:24:18.318Z,27104
2018-03-31T08:25:17.838Z,26656
2018-03-31T08:26:17.893Z,23808
2018-03-31T08:27:18.089Z,22272
2018-03-31T08:28:17.788Z,21952
2018-03-31T08:29:17.781Z,23488
2018-03-31T08:30:17.571Z,23136
2018-03-31T08:31:18.017Z,25792
2018-03-31T08:32:17.743Z,24224
2018-03-31T08:33:17.202Z,21696
2018-03-31T08:34:17.319Z,19680
2018-03-31T08:35:17.728Z,18368
2018-03-31T08:36:17.774Z,18528
2018-03-31T08:37:17.422Z,20032
2018-03-31T08:38:17.716Z,21312
2018-03-31T08:39:17.678Z,22656
2018-03-31T08:40:17.723Z,23168
2018-03-31T08:41:18.072Z,24576
2018-03-31T08:42:17.376Z,23968
2018-03-31T08:43:17.135Z,21344
2018-03-31T08:44:17.358Z,21920
2018-03-31T08:45:17.891Z,24288
2018-03-31T08:46:17.648Z,28160
2018-03-31T08:47:17.485Z,25728
2018-03-31T08:48:17.132Z,23872
2018-03-31T08:49:17.381Z,24512
2018-03-31T08:50:17.612Z,23648
2018-03-31T08:51:17.369Z,26400
2018-03-31T08:52:17.330Z,25856
2018-03-31T08:53:17.292Z,23776
2018-03-31T08:54:17.667Z,24704
2018-03-31T08:55:17.867Z,24224
2018-03-31T08:56:17.002Z,24192
2018-03-31T08:57:17.590Z,21280
2018-03-31T08:58:17.845Z,17504
2018-03-31T08:59:17.616Z,14820
2018-03-31T09:00:17.323Z,17664
2018-03-31T09:01:17.827Z,15400
2018-03-31T09:02:17.557Z,17408
2018-03-31T09:03:17.542Z,23488
2018-03-31T09:04:17.524Z,28992
2018-03-31T09:05:17.146Z,30688
2018-03-31T09:06:17.857Z,21472
2018-03-31T09:07:16.929Z,20416
2018-03-31T09:08:17.503Z,29728
2018-03-31T09:09:18.118Z,31296
2018-03-31T09:10:17.728Z,35232
2018-03-31T09:11:17.418Z,24384
2018-03-31T09:12:17.155Z,32320
2018-03-31T09:13:17.219Z,23840
2018-03-31T09:14:16.973Z,29952
2018-03-31T09:15:17.408Z,32000
2018-03-31T09:16:17.413Z,32800
2018-03-31T09:17:17.505Z,31904
2018-03-31T09:18:17.131Z,25184
2018-03-31T09:19:17.208Z,32992
2018-03-31T09:20:17.167Z,35424
2018-03-31T09:21:17.099Z,27744
2018-03-31T09:22:17.127Z,23456
2018-03-31T09:23:17.407Z,20608
2018-03-31T09:24:17.656Z,15156
2018-03-31T09:25:16.856Z,13552
2018-03-31T09:26:17.590Z,12676
2018-03-31T09:27:17.311Z,29632
2018-03-31T09:28:17.302Z,35200
2018-03-31T09:29:17.262Z,28128
2018-03-31T09:30:17.327Z,17792
2018-03-31T09:31:17.369Z,26656
2018-03-31T09:32:17.618Z,29408
2018-03-31T09:33:17.655Z,27168
2018-03-31T09:34:17.065Z,28736
2018-03-31T09:35:17.059Z,28736
2018-03-31T09:36:16.996Z,24192
2018-03-31T09:37:17.236Z,16000
2018-03-31T09:38:17.555Z,16832
2018-03-31T09:39:17.545Z,21568
2018-03-31T09:40:16.688Z,23008
2018-03-31T09:41:17.058Z,24800
2018-03-31T09:42:17.245Z,26176
2018-03-31T09:43:17.536Z,19968
2018-03-31T09:44:17.298Z,17248
2018-03-31T09:45:17.544Z,18976
2018-03-31T09:46:17.516Z,14784
2018-03-31T09:47:17.523Z,12296
2018-03-31T09:48:17.283Z,20032
2018-03-31T09:49:17.266Z,22848
2018-03-31T09:50:17.475Z,29632
2018-03-31T09:51:17.416Z,34976
2018-03-31T09:52:17.411Z,38144
2018-03-31T09:53:17.151Z,38336
2018-03-31T09:54:16.942Z,40000
2018-03-31T09:55:17.193Z,41888
2018-03-31T09:56:16.960Z,38624
2018-03-31T09:57:17.188Z,28928
2018-03-31T09:58:16.846Z,26944
2018-03-31T09:59:16.574Z,23296
2018-03-31T10:00:17.104Z,24288
2018-03-31T10:01:16.558Z,22592
2018-03-31T10:02:17.088Z,21440
2018-03-31T10:03:17.078Z,23328
2018-03-31T10:04:17.071Z,14824
2018-03-31T10:05:16.800Z,12668
2018-03-31T10:06:16.792Z,12240
2018-03-31T10:07:17.057Z,11540
2018-03-31T10:08:17.055Z,9752
2018-03-31T10:09:17.321Z,14432
2018-03-31T10:10:17.304Z,8268
2018-03-31T10:11:17.296Z,8220
2018-03-31T10:12:16.763Z,8048
2018-03-31T10:13:16.747Z,8584
2018-03-31T10:14:17.282Z,8612
2018-03-31T10:15:17.270Z,8420
2018-03-31T10:16:17.001Z,8348
2018-03-31T10:17:16.999Z,8680
2018-03-31T10:18:16.975Z,9536
2018-03-31T10:19:16.982Z,13892
2018-03-31T10:20:16.977Z,10936
2018-03-31T10:21:16.953Z,8988
2018-03-31T10:22:16.680Z,9092
2018-03-31T10:23:16.675Z,31488
2018-03-31T10:24:17.500Z,27520
2018-03-31T10:25:16.929Z,26496
2018-03-31T10:26:16.654Z,32096
2018-03-31T10:27:16.636Z,27456
2018-03-31T10:28:16.624Z,36160
2018-03-31T10:29:17.108Z,38336
2018-03-31T10:30:16.619Z,42816
2018-03-31T10:31:16.608Z,40608
2018-03-31T10:32:16.332Z,63424
2018-03-31T10:33:16.584Z,68384
2018-03-31T10:34:16.764Z,57472
2018-03-31T10:35:16.984Z,44800
2018-03-31T10:36:16.932Z,30304
2018-03-31T10:37:16.362Z,41120
2018-03-31T10:38:16.289Z,44672
2018-03-31T10:39:17.125Z,48576
2018-03-31T10:40:17.067Z,46432
2018-03-31T10:41:16.808Z,33312
2018-03-31T10:42:16.810Z,29920
2018-03-31T10:43:16.883Z,35584
2018-03-31T10:44:16.795Z,43456
2018-03-31T10:45:16.923Z,34496
2018-03-31T10:46:17.117Z,15060
2018-03-31T10:47:17.101Z,17504
2018-03-31T10:48:17.045Z,15916
2018-03-31T10:49:16.822Z,15908
2018-03-31T10:50:16.798Z,14788
2018-03-31T10:51:16.815Z,42112
2018-03-31T10:52:17.107Z,43360
2018-03-31T10:53:16.799Z,50432
2018-03-31T10:54:17.053Z,57472
2018-03-31T10:55:16.488Z,62880
2018-03-31T10:56:17.021Z,61984
2018-03-31T10:57:16.723Z,60160
2018-03-31T10:58:16.985Z,59168
2018-03-31T10:59:16.704Z,55744
2018-03-31T11:00:16.528Z,53152
2018-03-31T11:01:16.737Z,58496
2018-03-31T11:02:16.972Z,58400
2018-03-31T11:03:16.706Z,58720
2018-03-31T11:04:16.452Z,66112
2018-03-31T11:05:16.693Z,67872
2018-03-31T11:06:16.733Z,66624
2018-03-31T11:07:16.987Z,57632
2018-03-31T11:08:17.033Z,58752
2018-03-31T11:09:16.404Z,59456
2018-03-31T11:10:16.166Z,56608
2018-03-31T11:11:16.669Z,59616
2018-03-31T11:12:16.141Z,65152
2018-03-31T11:13:16.460Z,69216
2018-03-31T11:14:16.663Z,64608
2018-03-31T11:15:17.123Z,65952
2018-03-31T11:16:16.667Z,61280
2018-03-31T11:17:16.145Z,63264
2018-03-31T11:18:16.880Z,67328
2018-03-31T11:19:16.666Z,65440
2018-03-31T11:20:16.435Z,65056
2018-03-31T11:21:16.419Z,67328
2018-03-31T11:22:16.543Z,69632
2018-03-31T11:23:16.935Z,73056
2018-03-31T11:24:16.402Z,74208
2018-03-31T11:25:16.680Z,76224
2018-03-31T11:26:16.965Z,73600
2018-03-31T11:27:16.951Z,73664
2018-03-31T11:28:16.405Z,72000
2018-03-31T11:29:16.940Z,74048
2018-03-31T11:30:16.224Z,76736
2018-03-31T11:31:16.695Z,72064
2018-03-31T11:32:16.416Z,67648
2018-03-31T11:33:16.947Z,78400
2018-03-31T11:34:16.682Z,76960
2018-03-31T11:35:16.422Z,72032
2018-03-31T11:36:16.422Z,70496
2018-03-31T11:37:16.954Z,64960
2018-03-31T11:38:16.702Z,61856
2018-03-31T11:39:16.442Z,63232
2018-03-31T11:40:16.162Z,67712
2018-03-31T11:41:17.071Z,75008
2018-03-31T11:42:16.712Z,77376
2018-03-31T11:43:16.821Z,36800
2018-03-31T11:44:16.744Z,18240
2018-03-31T11:45:16.829Z,19296
2018-03-31T11:46:16.504Z,16592
2018-03-31T11:47:16.764Z,34464
2018-03-31T11:48:16.795Z,68320
2018-03-31T11:49:17.050Z,68992
2018-03-31T11:50:17.002Z,71840
2018-03-31T11:51:16.741Z,62720
2018-03-31T11:52:17.068Z,71264
2018-03-31T11:53:16.745Z,72640
2018-03-31T11:54:17.069Z,74848
2018-03-31T11:55:16.810Z,72544
2018-03-31T11:56:16.746Z,71488
2018-03-31T11:57:16.794Z,69664
2018-03-31T11:58:16.750Z,55392
2018-03-31T11:59:16.845Z,66624
2018-03-31T12:00:16.644Z,65056
2018-03-31T12:01:16.761Z,13768
2018-03-31T12:02:16.317Z,19360
2018-03-31T12:03:16.520Z,67840
2018-03-31T12:04:16.506Z,69728
2018-03-31T12:05:16.814Z,74720
2018-03-31T12:06:16.789Z,79264
2018-03-31T12:07:17.093Z,80960
2018-03-31T12:08:16.252Z,85344
2018-03-31T12:09:16.993Z,86112
2018-03-31T12:10:16.862Z,89664
2018-03-31T12:11:16.799Z,92512
2018-03-31T12:12:16.859Z,50976
2018-03-31T12:13:16.947Z,66496
2018-03-31T12:14:16.654Z,82912
2018-03-31T12:15:16.654Z,80032
2018-03-31T12:16:16.813Z,77184
2018-03-31T12:17:16.543Z,21376
2018-03-31T12:18:17.090Z,28224
2018-03-31T12:19:16.870Z,54560
2018-03-31T12:20:16.821Z,45024
2018-03-31T12:21:17.191Z,77664
2018-03-31T12:22:17.158Z,32608
2018-03-31T12:23:16.897Z,64032
2018-03-31T12:24:16.907Z,74400
2018-03-31T12:25:17.168Z,75872
2018-03-31T12:26:16.836Z,29760
2018-03-31T12:27:16.920Z,64736
2018-03-31T12:28:17.195Z,38368
2018-03-31T12:29:16.646Z,58880
2018-03-31T12:30:16.878Z,64896
2018-03-31T12:31:16.671Z,76160
2018-03-31T12:32:16.937Z,76896
2018-03-31T12:33:16.889Z,80704
2018-03-31T12:34:17.181Z,81728
2018-03-31T12:35:17.195Z,83456
2018-03-31T12:36:16.630Z,82944
2018-03-31T12:37:16.833Z,85408
2018-03-31T12:38:16.607Z,84640
2018-03-31T12:39:16.880Z,87008
2018-03-31T12:40:17.182Z,87392
2018-03-31T12:41:16.960Z,88672
2018-03-31T12:42:16.894Z,87680
2018-03-31T12:43:16.627Z,63808
2018-03-31T12:44:16.681Z,60544
2018-03-31T12:45:16.903Z,94528
2018-03-31T12:46:17.180Z,38368
2018-03-31T12:47:16.964Z,91488
2018-03-31T12:48:16.655Z,28224
2018-03-31T12:49:16.920Z,47968
2018-03-31T12:50:16.986Z,28736
2018-03-31T12:51:16.666Z,25952
2018-03-31T12:52:17.054Z,25536
2018-03-31T12:53:16.396Z,31552
2018-03-31T12:54:17.198Z,23200
2018-03-31T12:55:16.432Z,22528
2018-03-31T12:56:17.250Z,21152
2018-03-31T12:57:16.722Z,19808
2018-03-31T12:58:16.955Z,20256
2018-03-31T12:59:17.220Z,18304
2018-03-31T13:00:16.989Z,21600
2018-03-31T13:01:17.019Z,88352
2018-03-31T13:02:16.767Z,83072
2018-03-31T13:03:16.983Z,79488
2018-03-31T13:04:16.694Z,73472
2018-03-31T13:05:17.021Z,68512
2018-03-31T13:06:16.956Z,74816
2018-03-31T13:07:16.682Z,80640
2018-03-31T13:08:17.224Z,34016
2018-03-31T13:09:16.996Z,26016
2018-03-31T13:10:16.693Z,30976
2018-03-31T13:11:16.702Z,36672
2018-03-31T13:12:16.960Z,27168
2018-03-31T13:13:16.685Z,24096
2018-03-31T13:14:17.357Z,24160
2018-03-31T13:15:17.250Z,28256
2018-03-31T13:16:16.774Z,56224
2018-03-31T13:17:16.816Z,31744
2018-03-31T13:18:16.925Z,17152
2018-03-31T13:19:17.330Z,16256
2018-03-31T13:20:16.967Z,15352
2018-03-31T13:21:17.257Z,15988
2018-03-31T13:22:17.151Z,17632
2018-03-31T13:23:16.675Z,18336
2018-03-31T13:24:17.257Z,18240
2018-03-31T13:25:16.744Z,18016
2018-03-31T13:26:16.800Z,17920
2018-03-31T13:27:16.977Z,17824
2018-03-31T13:28:16.459Z,21024
2018-03-31T13:29:16.743Z,92128
2018-03-31T13:30:16.699Z,92608
2018-03-31T13:31:16.961Z,75840
2018-03-31T13:32:16.801Z,78016
2018-03-31T13:33:16.920Z,83936
2018-03-31T13:34:17.183Z,85376
2018-03-31T13:35:16.898Z,65856
2018-03-31T13:36:16.654Z,30720
2018-03-31T13:37:16.914Z,26048
2018-03-31T13:38:17.172Z,28000
2018-03-31T13:39:16.909Z,20640